Time;durP1;ratioP1;P1;durP2;ratioP2;P2;SDS_P1;SDS_P2;PMS_P1;PMS_P2;Temp;Humidity;BMP_temperature;BMP_pressure;BME280_temperature;BME280_humidity;BME280_pressure;Samples;Min_cycle;Max_cycle;Signal;HPM_P1;HPM_P2
2023/10/13 00:01:51;;;;;;;8.95;5.57;;;;;;;23.77;44.27;99874.22;4484753;32;34939;-63
2023/10/13 00:04:24;;;;;;;10.00;5.32;;;;;;;23.78;44.26;99865.00;4483748;32;33564;-63
2023/10/13 00:06:52;;;;;;;9.75;5.40;;;;;;;23.77;44.32;99868.78;4484642;32;33344;-64
2023/10/13 00:09:25;;;;;;;10.23;5.40;;;;;;;23.77;44.35;99868.78;4484577;32;34808;-64
2023/10/13 00:11:53;;;;;;;9.73;5.35;;;;;;;23.76;44.30;99884.31;4484914;32;33994;-64
2023/10/13 00:14:21;;;;;;;10.00;5.20;;;;;;;23.77;44.28;99882.41;4484406;32;33436;-64
2023/10/13 00:17:03;;;;;;;8.43;5.25;;;;;;;23.77;44.35;99888.69;4484701;32;33312;-64
2023/10/13 00:19:45;;;;;;;9.05;5.07;;;;;;;23.77;44.31;99885.13;4484794;32;34577;-65
2023/10/13 00:22:15;;;;;;;10.25;5.40;;;;;;;23.77;44.32;99885.13;4471647;32;33860;-65
2023/10/13 00:24:45;;;;;;;9.07;5.25;;;;;;;23.78;44.38;99882.19;4483722;32;33735;-64
2023/10/13 00:27:29;;;;;;;9.10;5.72;;;;;;;23.81;44.40;99878.16;4484851;32;33324;-64
2023/10/13 00:30:22;;;;;;;7.82;4.75;;;;;;;23.81;44.38;99875.44;4472293;32;34735;-64
2023/10/13 00:32:54;;;;;;;9.20;5.15;;;;;;;23.79;44.36;99877.59;4484836;32;34178;-63
2023/10/13 00:35:35;;;;;;;6.68;4.72;;;;;;;23.77;44.33;99866.06;4484600;32;33847;-64
2023/10/13 00:38:12;;;;;;;8.02;4.95;;;;;;;23.77;44.32;99869.59;4484694;32;34310;-63
2023/10/13 00:40:42;;;;;;;8.60;5.50;;;;;;;23.76;44.31;99864.41;4484515;32;34014;-64
2023/10/13 00:45:55;;;;;;;8.32;5.57;;;;;;;23.77;44.23;99874.22;4484449;32;33838;-64
2023/10/13 00:48:33;;;;;;;7.50;4.87;;;;;;;23.77;44.24;99871.50;4484596;32;34020;-64
2023/10/13 00:51:03;;;;;;;7.47;5.15;;;;;;;23.76;44.27;99870.69;4478787;32;33634;-64
2023/10/13 00:53:30;;;;;;;8.27;5.22;;;;;;;23.75;44.29;99870.91;4467751;32;33198;-64
2023/10/13 00:56:05;;;;;;;8.55;4.72;;;;;;;23.75;44.30;99870.91;4469136;32;33810;-64
2023/10/13 00:58:34;;;;;;;9.38;4.97;;;;;;;23.75;44.33;99870.91;4467683;32;33008;-64
2023/10/13 01:01:17;;;;;;;8.32;4.90;;;;;;;23.75;44.34;99868.19;4468414;32;33722;-63
2023/10/13 01:03:50;;;;;;;10.05;5.15;;;;;;;23.75;44.42;99868.19;4467461;32;34098;-64
2023/10/13 01:06:17;;;;;;;7.53;4.97;;;;;;;23.76;44.51;99862.50;4468776;32;34544;-63
2023/10/13 01:08:50;;;;;;;8.30;4.93;;;;;;;23.76;44.53;99859.78;4467574;32;33161;-64
2023/10/13 01:11:18;;;;;;;9.45;5.35;;;;;;;23.76;44.52;99856.22;4468507;32;33600;-64
2023/10/13 01:13:51;;;;;;;6.70;4.53;;;;;;;23.74;44.54;99853.75;4468893;32;33973;-64
2023/10/13 01:16:23;;;;;;;7.28;4.85;;;;;;;23.76;44.57;99845.31;4468371;32;33904;-64
2023/10/13 01:18:51;;;;;;;8.15;5.28;;;;;;;23.75;44.56;99851.84;4467537;32;34090;-63
2023/10/13 01:21:27;;;;;;;7.97;4.93;;;;;;;23.77;44.59;99860.59;4468704;32;34829;-63
2023/10/13 01:23:54;;;;;;;8.30;4.50;;;;;;;23.77;44.63;99857.88;4468536;32;34142;-64
2023/10/13 01:26:26;;;;;;;9.38;4.90;;;;;;;23.77;44.59;99853.25;4468702;32;33971;-64
2023/10/13 01:28:57;;;;;;;9.38;5.07;;;;;;;23.77;44.61;99852.44;4468388;32;33481;-63
2023/10/13 01:31:27;;;;;;;9.98;4.72;;;;;;;23.75;44.58;99851.84;4467429;32;33786;-63
2023/10/13 01:33:58;;;;;;;10.00;5.03;;;;;;;23.75;44.60;99852.69;4467560;32;34028;-63
2023/10/13 01:36:26;;;;;;;6.85;4.40;;;;;;;23.75;44.61;99858.13;4454822;32;33822;-64
2023/10/13 01:38:54;;;;;;;9.13;4.85;;;;;;;23.76;44.63;99865.22;4468514;32;34487;-63
2023/10/13 01:41:21;;;;;;;7.45;5.10;;;;;;;23.76;44.59;99857.06;4454395;32;34277;-64
2023/10/13 01:43:49;;;;;;;8.77;4.93;;;;;;;23.75;44.56;99854.56;4467131;32;33481;-64
2023/10/13 01:46:19;;;;;;;10.20;4.30;;;;;;;23.81;44.60;99853.66;4468454;32;33885;-64
2023/10/13 01:48:47;;;;;;;7.95;4.37;;;;;;;23.80;44.63;99854.72;4468163;32;33500;-63
2023/10/13 01:51:14;;;;;;;7.57;5.18;;;;;;;23.83;44.61;99854.28;4482163;32;33933;-63
2023/10/13 01:53:43;;;;;;;8.40;4.70;;;;;;;23.82;44.57;99858.03;4484048;32;34764;-63
2023/10/13 01:56:10;;;;;;;12.02;4.40;;;;;;;23.82;44.58;99868.94;4484044;32;34328;-64
2023/10/13 01:58:42;;;;;;;7.78;4.68;;;;;;;23.83;44.57;99867.91;4483819;32;33504;-63
2023/10/13 02:01:10;;;;;;;8.02;5.10;;;;;;;23.81;44.57;99872.72;4483824;32;34023;-63
2023/10/13 02:03:46;;;;;;;8.93;4.50;;;;;;;23.84;44.58;99869.56;4483868;32;33677;-64
2023/10/13 02:06:17;;;;;;;11.57;5.35;;;;;;;23.84;44.68;99873.09;4483803;32;33802;-64
2023/10/13 02:08:47;;;;;;;8.23;4.65;;;;;;;23.83;44.64;99871.44;4483872;32;33502;-64
2023/10/13 02:11:18;;;;;;;10.93;5.43;;;;;;;23.83;44.64;99867.91;4483714;32;33931;-64
2023/10/13 02:13:53;;;;;;;9.48;5.12;;;;;;;23.80;44.51;99858.28;4483849;32;34490;-64
2023/10/13 02:16:22;;;;;;;9.63;4.82;;;;;;;23.80;44.41;99862.88;4483577;32;33794;-64
2023/10/13 02:18:51;;;;;;;10.20;5.07;;;;;;;23.79;44.31;99861.22;4483663;32;33559;-65
2023/10/13 02:21:19;;;;;;;8.25;5.10;;;;;;;23.78;44.28;99863.13;4483683;32;33982;-64
2023/10/13 02:23:59;;;;;;;7.70;4.55;;;;;;;23.78;44.31;99870.44;4482266;32;33858;-65
2023/10/13 02:26:38;;;;;;;10.70;5.32;;;;;;;23.78;44.38;99859.53;4483536;32;34063;-65
2023/10/13 02:29:13;;;;;;;11.77;5.40;;;;;;;23.78;44.30;99859.53;4483240;32;34325;-65
2023/10/13 02:31:42;;;;;;;11.23;5.90;;;;;;;23.77;44.25;99856.00;4483562;32;33785;-65
2023/10/13 02:34:13;;;;;;;7.28;4.85;;;;;;;23.76;44.26;99853.50;4482452;32;34798;-65
2023/10/13 02:36:48;;;;;;;10.70;5.22;;;;;;;23.77;44.23;99866.06;4483462;32;34691;-64
2023/10/13 02:39:16;;;;;;;9.48;5.50;;;;;;;23.77;44.30;99868.78;4483377;32;32942;-64
2023/10/13 02:41:48;;;;;;;11.48;5.07;;;;;;;23.77;44.28;99869.59;4481777;32;33593;-65
2023/10/13 02:44:30;;;;;;;11.12;5.53;;;;;;;23.77;44.34;99876.97;4483318;32;34859;-64
2023/10/13 02:46:58;;;;;;;7.70;5.05;;;;;;;23.77;44.30;99876.97;4485233;32;34688;-64
2023/10/13 02:49:27;;;;;;;10.48;5.12;;;;;;;23.76;44.35;99876.12;4484214;32;33440;-64
2023/10/13 02:51:55;;;;;;;9.65;5.43;;;;;;;23.75;44.34;99869.03;4471176;32;33440;-64
2023/10/13 02:54:26;;;;;;;10.80;5.13;;;;;;;23.75;44.33;99884.53;4485352;32;34060;-64
2023/10/13 02:56:57;;;;;;;12.45;5.05;;;;;;;23.76;44.30;99889.75;4485418;32;34876;-64
2023/10/13 02:59:34;;;;;;;9.63;5.60;;;;;;;23.75;44.30;99887.25;4485387;32;33646;-64
2023/10/13 03:02:17;;;;;;;10.00;5.55;;;;;;;23.75;44.28;99903.59;4485378;32;34777;-64
2023/10/13 03:04:49;;;;;;;10.18;5.45;;;;;;;23.76;44.25;99897.94;4485194;32;34630;-64
2023/10/13 03:07:23;;;;;;;12.20;5.90;;;;;;;23.75;44.30;99900.88;4485351;32;34545;-64
2023/10/13 03:09:51;;;;;;;9.85;5.32;;;;;;;23.74;44.33;99902.78;4484379;32;33214;-63
2023/10/13 03:12:20;;;;;;;10.90;5.00;;;;;;;23.74;44.35;99902.78;4485130;32;33837;-64
2023/10/13 03:14:47;;;;;;;9.50;5.10;;;;;;;23.74;44.34;99905.50;4485238;32;34715;-64
2023/10/13 03:17:17;;;;;;;9.18;5.55;;;;;;;23.75;44.45;99890.00;4485092;32;34797;-65
2023/10/13 03:19:49;;;;;;;9.25;5.32;;;;;;;23.74;44.53;99886.44;4485327;32;34773;-64
2023/10/13 03:22:18;;;;;;;8.93;4.80;;;;;;;23.74;44.65;99882.88;4485267;32;34681;-64
2023/10/13 03:24:46;;;;;;;9.40;5.55;;;;;;;23.74;44.70;99882.88;4483906;32;33463;-64
2023/10/13 03:27:17;;;;;;;7.50;5.25;;;;;;;23.73;44.55;99879.28;4485133;32;32956;-64
2023/10/13 03:29:53;;;;;;;8.88;4.90;;;;;;;23.74;44.57;99871.97;4483796;32;33394;-65
2023/10/13 03:32:21;;;;;;;8.10;5.05;;;;;;;23.74;44.59;99874.72;4483951;32;33724;-64
2023/10/13 03:37:40;;;;;;;8.65;5.35;;;;;;;23.76;44.63;99867.94;4460409;32;33706;-63
2023/10/13 03:43:12;;;;;;;8.57;5.03;;;;;;;23.77;44.67;99845.09;4484806;32;34635;-64
2023/10/13 03:45:43;;;;;;;10.57;5.70;;;;;;;23.78;44.67;99848.66;4485331;32;34276;-65
2023/10/13 03:51:14;;;;;;;9.18;5.65;;;;;;;23.77;44.73;99836.09;4484795;32;33372;-64
2023/10/13 03:53:54;;;;;;;;;;;;;;;23.79;44.71;99842.16;4485339;32;34321;-65
2023/10/13 03:56:27;;;;;;;8.32;5.68;;;;;;;23.85;44.54;99849.41;4484586;32;35134;-65
2023/10/13 03:59:04;;;;;;;9.10;5.10;;;;;;;23.76;44.70;99840.72;4484717;32;33406;-64
2023/10/13 04:05:07;;;;;;;9.80;5.80;;;;;;;23.74;44.62;99825.66;4483765;32;33866;-64
2023/10/13 04:12:26;;;;;;;9.80;5.55;;;;;;;23.72;44.57;99825.87;4484739;32;33767;-64
2023/10/13 04:17:46;;;;;;;13.45;6.40;;;;;;;23.74;44.58;99821.03;4484597;32;34906;-64
2023/10/13 04:20:27;;;;;;;9.63;5.55;;;;;;;23.73;44.63;99829.44;4484768;32;34288;-64
2023/10/13 04:38:56;;;;;;;11.40;6.68;;;;;;;23.72;44.66;99838.66;4483558;32;34131;-64
2023/10/13 04:41:36;;;;;;;10.20;5.93;;;;;;;23.70;44.59;99829.91;4484627;32;33918;-64
2023/10/13 04:51:59;;;;;;;15.70;6.60;;;;;;;23.72;44.84;99827.78;4484436;32;33794;-64
2023/10/13 04:54:34;;;;;;;13.02;6.07;;;;;;;23.72;44.86;99841.37;4470382;32;33448;-64
2023/10/13 05:44:37;;;;;;;15.32;7.10;;;;;;;23.67;44.90;99927.34;4477522;32;33405;-63
2023/10/13 05:47:46;;;;;;;12.63;7.35;;;;;;;23.67;44.89;99923.78;4483454;32;33586;-64
2023/10/13 06:28:49;;;;;;;13.55;7.22;;;;;;;23.61;44.96;99951.91;4485655;32;33465;-64
2023/10/13 06:31:25;;;;;;;12.18;6.75;;;;;;;23.60;44.97;99959.25;4485586;32;33886;-65
2023/10/13 06:33:55;;;;;;;12.68;7.20;;;;;;;23.62;44.95;99964.47;4485577;32;34174;-64
2023/10/13 06:36:23;;;;;;;;;;;;;;;23.60;44.96;99963.87;4485715;32;34575;-65
2023/10/13 06:39:25;;;;;;;12.00;6.87;;;;;;;23.70;44.75;99966.94;4485595;32;33720;-65
2023/10/13 06:41:44;;;;;;;12.32;6.70;;;;;;;23.63;44.89;99969.69;4484353;32;33937;-64
2023/10/13 06:44:15;;;;;;;12.23;7.10;;;;;;;23.60;44.95;99981.03;4485619;32;33514;-65
2023/10/13 06:46:43;;;;;;;16.55;6.05;;;;;;;23.59;44.99;99976.63;4485701;32;33940;-64
2023/10/13 06:49:13;;;;;;;16.00;7.12;;;;;;;23.60;44.98;99969.31;4485181;32;33832;-65
2023/10/13 06:51:41;;;;;;;10.63;6.30;;;;;;;23.60;44.99;99978.31;4485327;32;34125;-65
2023/10/13 06:54:11;;;;;;;11.45;6.97;;;;;;;23.60;44.96;99981.03;4485334;32;33595;-64
2023/10/13 06:56:39;;;;;;;11.02;6.62;;;;;;;23.60;45.00;99983.78;4485390;32;34692;-64
2023/10/13 06:59:07;;;;;;;10.98;6.75;;;;;;;23.60;44.99;99988.38;4485346;32;33471;-64
2023/10/13 07:01:38;;;;;;;10.52;7.05;;;;;;;23.60;44.99;99994.66;4485259;32;33512;-64
2023/10/13 07:04:12;;;;;;;12.43;7.28;;;;;;;23.60;44.99;99999.28;4485369;32;33524;-64
2023/10/13 07:06:51;;;;;;;9.88;6.68;;;;;;;23.60;44.98;100002.00;4485343;32;34902;-65
2023/10/13 07:12:06;;;;;;;10.90;7.25;;;;;;;23.61;44.96;99999.03;4485197;32;33786;-64
2023/10/13 07:14:36;;;;;;;11.15;7.62;;;;;;;23.59;45.01;100006.59;4485188;32;33028;-65
2023/10/13 07:17:05;;;;;;;9.63;6.43;;;;;;;23.60;45.03;99996.56;4485157;32;33807;-65
2023/10/13 07:19:33;;;;;;;15.43;7.37;;;;;;;23.59;45.04;99992.97;4471013;32;34062;-65
2023/10/13 07:22:19;;;;;;;12.23;7.35;;;;;;;23.59;45.06;100001.16;4485486;32;33910;-64
2023/10/13 07:24:48;;;;;;;13.73;7.62;;;;;;;23.58;45.05;100004.94;4485055;32;33229;-65
2023/10/13 07:27:22;;;;;;;11.70;7.40;;;;;;;23.60;45.06;100005.56;4483970;32;34484;-65
2023/10/13 07:29:55;;;;;;;11.10;6.80;;;;;;;23.60;45.05;100004.72;4485096;32;33947;-65
2023/10/13 07:32:26;;;;;;;11.43;7.22;;;;;;;23.59;45.10;100000.31;4484556;32;34616;-64
2023/10/13 07:34:57;;;;;;;8.70;6.25;;;;;;;23.59;45.12;99998.41;4485180;32;33299;-65
2023/10/13 07:37:28;;;;;;;9.77;6.90;;;;;;;23.58;45.15;99995.94;4484875;32;34106;-64
2023/10/13 07:39:58;;;;;;;11.68;7.37;;;;;;;23.59;45.17;100003.88;4485016;32;34025;-64
2023/10/13 07:42:38;;;;;;;12.15;7.47;;;;;;;23.58;45.21;100010.37;4484994;32;33847;-65
2023/10/13 07:45:07;;;;;;;10.68;6.93;;;;;;;23.59;45.18;100012.03;4485075;32;33851;-66
2023/10/13 07:47:35;;;;;;;10.32;6.68;;;;;;;23.59;45.20;100011.22;4484900;32;34737;-65
2023/10/13 07:50:06;;;;;;;12.70;7.18;;;;;;;23.59;45.21;100006.59;4478573;32;33826;-65
2023/10/13 07:52:37;;;;;;;12.95;6.97;;;;;;;23.58;45.23;99999.47;4469296;32;34618;-65
2023/10/13 07:55:11;;;;;;;13.23;7.03;;;;;;;23.59;45.24;100003.03;4469421;32;33064;-65
2023/10/13 07:57:56;;;;;;;10.30;6.75;;;;;;;23.58;45.26;100001.38;4469219;32;34786;-65
2023/10/13 08:08:39;;;;;;;12.25;6.57;;;;;;;23.58;45.37;100001.38;4457296;32;34326;-65
2023/10/13 08:13:55;;;;;;;13.25;6.97;;;;;;;23.56;45.43;99996.16;4469115;32;33956;-65
2023/10/13 08:16:47;;;;;;;11.70;7.12;;;;;;;23.56;45.46;99993.44;4470144;32;34194;-64
2023/10/13 08:19:15;;;;;;;11.68;7.40;;;;;;;23.57;45.45;99989.66;4484747;32;34866;-65
2023/10/13 08:21:51;;;;;;;10.90;6.90;;;;;;;23.56;45.45;99993.44;4484730;32;33516;-65
2023/10/13 08:32:54;;;;;;;11.77;6.45;;;;;;;23.57;45.41;99989.66;4484588;32;34179;-65
2023/10/13 08:35:10;;;;;;;12.23;7.43;;;;;;;23.57;45.39;99992.38;4483379;32;34121;-65
2023/10/13 08:37:47;;;;;;;11.90;7.43;;;;;;;23.58;45.38;99987.75;4484517;32;34600;-65
2023/10/13 08:48:14;;;;;;;13.02;7.00;;;;;;;23.55;45.41;100002.66;4470467;32;33321;-64
2023/10/13 08:53:58;;;;;;;11.63;6.60;;;;;;;23.56;45.43;100007.06;4455770;32;34837;-65
2023/10/13 08:56:15;;;;;;;10.13;6.70;;;;;;;23.56;45.41;100009.78;4466614;32;33562;-65
2023/10/13 09:09:34;;;;;;;11.20;6.35;;;;;;;23.57;45.37;100016.87;4468749;32;33495;-66
2023/10/13 09:12:09;;;;;;;12.98;7.10;;;;;;;23.57;45.35;100008.72;4458726;32;34785;-66
2023/10/13 09:14:39;;;;;;;10.82;6.60;;;;;;;23.57;45.34;100003.28;4444031;32;33488;-66
2023/10/13 09:19:47;;;;;;;9.25;5.90;;;;;;;23.67;45.04;100008.25;4450129;32;34346;-65
2023/10/13 09:22:35;;;;;;;10.25;6.57;;;;;;;23.59;45.17;100003.03;4453389;32;34667;-66
2023/10/13 09:25:13;;;;;;;10.88;6.87;;;;;;;23.58;45.14;100007.66;4453198;32;34445;-66
2023/10/13 09:27:41;;;;;;;11.55;6.40;;;;;;;23.56;45.14;100007.06;4445358;32;34095;-65
2023/10/13 09:30:23;;;;;;;11.63;7.45;;;;;;;23.56;45.13;100001.59;4463662;32;33709;-65
2023/10/13 09:33:15;;;;;;;11.55;6.85;;;;;;;23.57;45.10;100003.28;4468524;32;34763;-66
2023/10/13 09:35:48;;;;;;;11.00;7.12;;;;;;;23.59;45.04;100006.59;4440458;32;34735;-65
2023/10/13 09:38:17;;;;;;;14.07;6.80;;;;;;;23.57;45.08;100007.88;4463156;32;34306;-66
2023/10/13 09:40:50;;;;;;;11.25;6.20;;;;;;;23.57;45.04;100011.44;4468488;32;33901;-66
2023/10/13 09:43:19;;;;;;;13.85;7.15;;;;;;;23.58;44.99;100006.81;4454971;32;34010;-65
2023/10/13 09:48:40;;;;;;;10.68;6.80;;;;;;;23.59;44.94;100003.88;4451565;32;33904;-66
2023/10/13 09:51:13;;;;;;;13.30;7.00;;;;;;;23.59;44.92;100008.47;4482510;32;34245;-67
2023/10/13 09:53:53;;;;;;;13.38;7.05;;;;;;;23.59;44.87;100006.59;4473933;32;34718;-64
2023/10/13 09:56:54;;;;;;;10.93;7.20;;;;;;;23.60;44.85;100004.72;4457871;32;34312;-65
2023/10/13 09:59:34;;;;;;;12.50;7.32;;;;;;;23.61;44.86;99998.22;4466121;32;34229;-65
2023/10/13 10:02:08;;;;;;;12.02;7.55;;;;;;;23.61;44.94;100001.78;4465839;32;33966;-65
2023/10/13 10:04:51;;;;;;;13.65;7.22;;;;;;;23.60;44.98;99994.66;4476611;32;34099;-66
2023/10/13 10:07:28;;;;;;;10.23;6.25;;;;;;;23.60;44.96;99991.94;4469257;32;33890;-66
2023/10/13 10:10:00;;;;;;;12.23;6.95;;;;;;;23.61;44.94;99982.69;4454466;32;33515;-66
2023/10/13 10:12:29;;;;;;;12.43;7.50;;;;;;;23.61;45.04;99987.31;4467458;32;34255;-64
2023/10/13 10:15:20;;;;;;;11.90;7.57;;;;;;;23.63;45.08;99996.09;4475940;32;34013;-65
2023/10/13 10:17:49;;;;;;;12.52;7.80;;;;;;;23.64;45.12;99989.59;4484124;32;33875;-66
2023/10/13 10:20:32;;;;;;;14.98;8.07;;;;;;;23.62;45.12;99984.38;4471456;32;34053;-66
2023/10/13 10:23:00;;;;;;;16.70;7.82;;;;;;;23.61;45.10;99981.88;4464703;32;33664;-65
2023/10/13 10:25:29;;;;;;;14.93;7.57;;;;;;;23.62;45.18;99980.81;4494384;31;33800;-65
2023/10/13 10:28:06;;;;;;;12.45;7.30;;;;;;;23.62;45.08;99984.38;4481012;32;34077;-65
2023/10/13 10:30:38;;;;;;;12.65;7.55;;;;;;;23.62;45.23;99976.19;4478405;32;33736;-66
2023/10/13 10:33:08;;;;;;;11.48;7.32;;;;;;;23.62;45.28;99973.47;4467353;32;33738;-66
2023/10/13 10:35:36;;;;;;;;;;;;;;;23.63;45.16;99957.94;4468825;32;33652;-65
2023/10/13 10:40:57;;;;;;;15.55;8.35;;;;;;;23.65;45.25;99954.00;4478932;32;33804;-66
2023/10/13 10:43:46;;;;;;;15.35;8.52;;;;;;;23.64;45.28;99946.03;4468990;32;33420;-64
2023/10/13 10:46:18;;;;;;;12.68;8.10;;;;;;;23.63;45.23;99952.50;4480653;32;33636;-66
2023/10/13 10:48:46;;;;;;;13.15;7.35;;;;;;;23.64;45.41;99944.16;4466346;32;34803;-64
2023/10/13 10:53:50;;;;;;;13.68;8.50;;;;;;;23.64;45.79;99937.84;4469651;32;33414;-66
2023/10/13 10:56:25;;;;;;;14.00;8.63;;;;;;;23.64;45.82;99938.72;4467884;32;33889;-66
2023/10/13 10:58:57;;;;;;;15.32;8.93;;;;;;;23.66;45.66;99933.03;4470443;32;33883;-66
2023/10/13 11:01:33;;;;;;;13.32;7.62;;;;;;;23.66;45.81;99933.88;4466950;32;33945;-66
2023/10/13 11:06:55;;;;;;;12.98;8.35;;;;;;;23.67;45.55;99942.88;4468429;32;34241;-65
2023/10/13 11:09:31;;;;;;;12.45;8.27;;;;;;;23.67;45.68;99937.41;4472111;32;33871;-65
2023/10/13 11:12:06;;;;;;;16.77;9.00;;;;;;;23.67;45.75;99937.41;4475122;32;34769;-66
2023/10/13 11:14:34;;;;;;;15.57;8.57;;;;;;;23.66;45.70;99933.03;4485064;32;34446;-65
2023/10/13 11:17:05;;;;;;;13.60;8.10;;;;;;;23.66;45.76;99931.13;4485306;32;34251;-66
2023/10/13 11:19:39;;;;;;;13.55;8.90;;;;;;;23.67;45.70;99924.63;4485452;32;34013;-66
2023/10/13 11:22:32;;;;;;;12.98;8.10;;;;;;;23.67;45.68;99919.19;4472408;32;34400;-66
2023/10/13 11:25:00;;;;;;;14.57;8.90;;;;;;;23.70;45.67;99917.91;4456852;32;32509;-66
2023/10/13 11:27:44;;;;;;;13.30;8.50;;;;;;;23.69;45.68;99913.53;4466938;32;33823;-65
2023/10/13 11:30:14;;;;;;;15.45;8.90;;;;;;;23.69;45.80;99910.81;4478785;32;33884;-66
2023/10/13 11:32:42;;;;;;;15.57;8.55;;;;;;;23.70;45.81;99911.63;4471174;32;34703;-66
2023/10/13 11:35:28;;;;;;;12.25;8.80;;;;;;;23.71;45.92;99907.84;4468859;32;33430;-65
2023/10/13 11:38:03;;;;;;;15.93;9.23;;;;;;;23.71;46.16;99908.66;4468340;32;35257;-66
2023/10/13 11:40:44;;;;;;;19.12;9.07;;;;;;;23.71;46.17;99905.94;4469601;32;33384;-65
2023/10/13 11:43:15;;;;;;;15.27;9.18;;;;;;;23.75;46.46;99904.44;4475098;32;34854;-65
2023/10/13 11:45:56;;;;;;;14.68;8.82;;;;;;;23.74;46.48;99893.78;4484913;32;33045;-65
2023/10/13 11:48:36;;;;;;;14.15;8.93;;;;;;;23.74;46.60;99902.78;4483143;32;33726;-65
2023/10/13 11:51:07;;;;;;;15.15;8.35;;;;;;;23.74;46.75;99899.22;4485077;32;33767;-64
2023/10/13 11:53:35;;;;;;;12.52;8.55;;;;;;;23.74;46.51;99894.59;4481212;32;33964;-66
2023/10/13 11:56:09;;;;;;;16.52;8.98;;;;;;;23.73;46.51;99898.38;4468010;32;34325;-65
2023/10/13 11:58:37;;;;;;;15.63;8.88;;;;;;;23.73;46.35;99901.09;4472655;32;33800;-64
2023/10/13 12:11:45;;;;;;;14.23;8.25;;;;;;;23.75;46.76;99884.53;4468715;32;34026;-63
2023/10/13 12:14:27;;;;;;;12.32;7.60;;;;;;;23.76;46.71;99883.47;4474165;32;33803;-64
2023/10/13 12:16:55;;;;;;;16.27;8.63;;;;;;;23.78;46.74;99875.88;4484508;32;34798;-65
2023/10/13 12:19:24;;;;;;;15.25;8.55;;;;;;;23.80;47.04;99882.78;4476251;32;34068;-65
2023/10/13 12:21:54;;;;;;;15.80;8.25;;;;;;;23.81;46.80;99883.62;4476468;32;34069;-64
2023/10/13 12:27:23;;;;;;;13.57;8.27;;;;;;;23.89;46.46;99877.88;4469223;32;33034;-64
2023/10/13 12:29:56;;;;;;;13.13;7.40;;;;;;;23.82;46.63;99877.09;4477859;32;33708;-64
2023/10/13 12:32:30;;;;;;;13.35;8.00;;;;;;;23.77;46.66;99871.50;4484293;32;33313;-65
2023/10/13 12:51:21;;;;;;;10.35;7.07;;;;;;;23.75;45.93;99858.13;4469003;32;33763;-66
2023/10/13 12:53:52;;;;;;;13.25;7.07;;;;;;;23.77;45.78;99857.88;4468394;32;34375;-66
2023/10/13 12:56:25;;;;;;;11.10;6.85;;;;;;;23.76;45.72;99850.78;4477820;32;34782;-64
2023/10/13 12:58:54;;;;;;;15.15;7.47;;;;;;;23.77;45.81;99856.00;4484623;32;33594;-66
2023/10/13 13:01:22;;;;;;;12.05;6.78;;;;;;;23.77;45.84;99855.16;4464329;32;34043;-66
2023/10/13 13:03:55;;;;;;;13.82;7.55;;;;;;;23.77;45.72;99852.44;4480167;32;34820;-65
2023/10/13 13:06:25;;;;;;;12.23;7.97;;;;;;;23.78;45.68;99843.19;4472809;32;33562;-64
2023/10/13 13:08:53;;;;;;;16.85;7.10;;;;;;;23.77;45.84;99844.25;4484288;32;33478;-65
2023/10/13 13:11:21;;;;;;;15.20;7.35;;;;;;;23.78;45.75;99840.47;4483165;32;33944;-66
2023/10/13 13:13:51;;;;;;;14.25;7.00;;;;;;;23.78;45.80;99838.59;4484409;32;33951;-65
2023/10/13 13:16:23;;;;;;;14.32;6.60;;;;;;;23.81;46.00;99834.56;4484400;32;33613;-66
2023/10/13 13:18:54;;;;;;;12.10;6.40;;;;;;;23.82;46.12;99838.97;4484460;32;33113;-66
2023/10/13 13:21:25;;;;;;;14.18;6.70;;;;;;;23.81;45.88;99829.97;4484423;32;33581;-65
2023/10/13 13:23:55;;;;;;;10.68;6.22;;;;;;;23.81;45.99;99834.56;4484239;32;33482;-65
2023/10/13 13:26:23;;;;;;;12.05;6.97;;;;;;;23.80;45.80;99828.31;4483209;32;34352;-66
2023/10/13 13:28:50;;;;;;;14.30;6.97;;;;;;;23.80;45.86;99830.19;4484336;32;34131;-65
2023/10/13 13:31:22;;;;;;;14.32;6.78;;;;;;;23.80;45.58;99824.75;4482005;32;33828;-66
2023/10/13 13:33:52;;;;;;;13.75;5.65;;;;;;;23.80;45.58;99832.91;4484037;32;33951;-65
2023/10/13 13:36:22;;;;;;;12.18;6.25;;;;;;;23.81;45.59;99837.31;4483730;32;33928;-71
2023/10/13 13:38:51;;;;;;;14.30;6.55;;;;;;;23.82;45.54;99841.69;4476282;32;33958;-70
2023/10/13 13:41:18;;;;;;;21.00;7.07;;;;;;;23.84;45.83;99831.41;4481595;32;33479;-68
2023/10/13 13:46:19;;;;;;;15.63;6.47;;;;;;;23.98;46.81;99840.25;4480538;32;34116;-66
2023/10/13 13:48:47;;;;;;;11.30;6.37;;;;;;;24.02;47.19;99828.66;4483426;32;33201;-66
2023/10/13 13:51:15;;;;;;;18.55;7.70;;;;;;;24.09;47.23;99829.38;4482090;32;34088;-71
2023/10/13 13:53:45;;;;;;;15.05;6.47;;;;;;;24.10;47.44;99828.31;4467915;32;34442;-66
2023/10/13 13:56:18;;;;;;;16.73;6.97;;;;;;;24.12;47.44;99826.22;4467525;32;33657;-66
2023/10/13 13:58:53;;;;;;;14.55;6.03;;;;;;;24.15;47.47;99825.75;4467839;32;33444;-69
2023/10/13 14:01:27;;;;;;;16.10;7.12;;;;;;;24.18;47.51;99827.19;4458534;32;34142;-68
2023/10/13 14:04:03;;;;;;;15.88;6.70;;;;;;;24.17;47.58;99815.44;4468686;32;33976;-66
2023/10/13 14:06:32;;;;;;;15.18;6.50;;;;;;;24.18;47.57;99819.81;4467984;32;33880;-67
2023/10/13 14:09:02;;;;;;;15.40;6.25;;;;;;;24.22;47.46;99813.91;4467657;32;34458;-71
2023/10/13 14:14:29;;;;;;;14.25;6.07;;;;;;;24.24;46.94;99815.34;4454697;32;34007;-69
2023/10/13 14:17:09;;;;;;;13.40;5.95;;;;;;;24.26;46.90;99812.41;4467717;32;33434;-72
2023/10/13 14:19:40;;;;;;;10.27;5.95;;;;;;;24.26;47.03;99806.94;4467310;32;34306;-66
2023/10/13 14:22:11;;;;;;;13.10;6.18;;;;;;;24.25;47.06;99808.84;4467778;32;33823;-65
2023/10/13 14:24:43;;;;;;;13.32;6.30;;;;;;;24.29;47.04;99806.47;4467257;32;34053;-65
2023/10/13 14:27:13;;;;;;;11.68;5.07;;;;;;;24.29;46.99;99807.28;4467530;32;33900;-65
2023/10/13 14:29:42;;;;;;;12.30;6.18;;;;;;;24.32;47.01;99803.28;4466790;32;34392;-67
2023/10/13 14:32:14;;;;;;;15.20;6.03;;;;;;;24.33;46.99;99803.03;4452115;32;33626;-66
2023/10/13 14:34:45;;;;;;;16.60;6.95;;;;;;;24.34;47.07;99802.00;4426238;32;34469;-66
2023/10/13 14:37:13;;;;;;;14.20;6.30;;;;;;;24.32;47.35;99793.19;4437949;32;34738;-66
2023/10/13 14:39:41;;;;;;;12.23;6.20;;;;;;;24.32;47.60;99792.38;4452002;32;33361;-67
2023/10/13 14:42:08;;;;;;;20.25;7.68;;;;;;;24.32;47.50;99795.94;4462834;32;33811;-71
2023/10/13 14:44:37;;;;;;;17.05;6.45;;;;;;;24.32;47.58;99787.75;4465026;32;34005;-67
2023/10/13 14:47:08;;;;;;;13.80;6.07;;;;;;;24.31;47.55;99788.00;4446215;32;34198;-65
2023/10/13 14:49:37;;;;;;;15.40;6.43;;;;;;;24.35;47.59;99787.28;4465467;32;32630;-65
2023/10/13 14:52:05;;;;;;;11.73;6.37;;;;;;;24.31;47.75;99777.91;4482953;32;33682;-65
2023/10/13 14:54:32;;;;;;;17.35;6.93;;;;;;;24.34;47.72;99780.19;4484558;32;33992;-66
2023/10/13 14:57:03;;;;;;;16.48;6.15;;;;;;;24.37;47.73;99784.34;4484184;32;33770;-66
2023/10/13 14:59:38;;;;;;;13.45;6.35;;;;;;;24.37;47.64;99787.91;4483631;32;33216;-65
2023/10/13 15:02:06;;;;;;;16.08;6.03;;;;;;;24.40;47.79;99778.44;4481254;32;33697;-66
2023/10/13 15:04:34;;;;;;;19.70;6.62;;;;;;;24.40;47.84;99778.44;4484022;32;34703;-65
2023/10/13 15:07:02;;;;;;;21.15;7.12;;;;;;;24.38;47.78;99777.84;4483960;32;34483;-65
2023/10/13 15:09:30;;;;;;;17.95;5.97;;;;;;;24.35;47.99;99781.00;4482286;32;32927;-67
2023/10/13 15:11:58;;;;;;;15.35;6.72;;;;;;;24.38;47.81;99775.94;4480278;32;33474;-71
2023/10/13 15:14:25;;;;;;;15.43;6.80;;;;;;;24.40;47.82;99778.44;4483802;32;34092;-70
2023/10/13 15:17:00;;;;;;;15.20;6.70;;;;;;;24.40;47.89;99781.19;4484056;32;33429;-68
2023/10/13 15:19:29;;;;;;;13.60;6.00;;;;;;;24.45;47.79;99778.56;4483904;32;33467;-67
2023/10/13 15:21:59;;;;;;;19.30;6.32;;;;;;;24.46;47.51;99785.69;4483160;32;33484;-65
2023/10/13 15:24:26;;;;;;;12.73;6.37;;;;;;;24.49;47.39;99779.78;4484690;32;33964;-71
2023/10/13 15:27:02;;;;;;;19.95;6.15;;;;;;;24.51;47.21;99782.25;4484582;32;34441;-66
2023/10/13 15:29:35;;;;;;;15.23;6.30;;;;;;;24.52;47.17;99784.75;4482139;32;33391;-65
2023/10/13 15:32:41;;;;;;;13.95;6.20;;;;;;;24.49;47.38;99785.22;4484396;32;34582;-70
2023/10/13 15:34:53;;;;;;;11.10;6.07;;;;;;;24.49;47.45;99778.94;4484213;32;34153;-73
2023/10/13 15:37:25;;;;;;;13.40;6.10;;;;;;;24.50;47.42;99778.69;4484726;32;34038;-68